Time;durP1;ratioP1;P1;durP2;ratioP2;P2;SDS_P1;SDS_P2;PMS_P1;PMS_P2;Temp;Humidity;BMP_temperature;BMP_pressure;BME280_temperature;BME280_humidity;BME280_pressure;Samples;Min_cycle;Max_cycle;Signal;HPM_P1;HPM_P2
2023/05/23 00:00:28;;;;;;;9.40;5.70;;;18.90;80.10;;;;;;5100931;27;20024;-84
2023/05/23 00:02:54;;;;;;;9.95;6.20;;;18.80;79.90;;;;;;5117919;27;20037;-84
2023/05/23 00:05:19;;;;;;;8.57;6.00;;;18.80;79.80;;;;;;5117816;27;20030;-84
2023/05/23 00:07:45;;;;;;;7.47;5.30;;;18.70;80.60;;;;;;5117890;27;20028;-84
2023/05/23 00:10:12;;;;;;;9.52;5.57;;;18.70;79.90;;;;;;5117815;27;20451;-84
2023/05/23 00:12:38;;;;;;;10.57;6.32;;;18.70;79.80;;;;;;5134920;27;20111;-84
2023/05/23 00:15:06;;;;;;;9.70;6.15;;;18.70;80.00;;;;;;5133922;27;20499;-84
2023/05/23 00:17:32;;;;;;;8.93;5.55;;;18.80;80.00;;;;;;5134727;27;20279;-84
2023/05/23 00:19:58;;;;;;;9.27;5.50;;;18.80;80.30;;;;;;5100545;27;20056;-84
2023/05/23 00:22:23;;;;;;;9.95;5.65;;;18.80;80.30;;;;;;5100595;27;20031;-83
2023/05/23 00:24:49;;;;;;;9.25;5.78;;;18.80;80.50;;;;;;5116386;27;20023;-84
2023/05/23 00:27:15;;;;;;;8.43;5.85;;;18.80;80.60;;;;;;5100507;27;20055;-83
2023/05/23 00:29:40;;;;;;;8.05;5.70;;;18.80;80.70;;;;;;5100431;27;20027;-83
2023/05/23 00:32:06;;;;;;;8.57;5.68;;;18.90;80.80;;;;;;5100586;27;20106;-84
2023/05/23 00:34:33;;;;;;;9.57;5.93;;;18.90;80.90;;;;;;5134462;27;20068;-84
2023/05/23 00:36:58;;;;;;;8.65;5.90;;;19.00;81.00;;;;;;5100590;27;20487;-84
2023/05/23 00:39:24;;;;;;;9.55;6.22;;;19.00;81.00;;;;;;5100372;27;20032;-84
2023/05/23 00:41:50;;;;;;;10.43;5.70;;;18.90;80.90;;;;;;5117154;27;20029;-84
2023/05/23 00:44:16;;;;;;;10.38;6.22;;;18.80;80.80;;;;;;5134363;27;20027;-84
2023/05/23 00:46:44;;;;;;;9.57;6.22;;;18.80;80.70;;;;;;5135520;27;20058;-84
2023/05/23 00:49:11;;;;;;;10.05;5.80;;;18.80;81.00;;;;;;5134121;27;20392;-83
2023/05/23 00:51:37;;;;;;;10.60;6.07;;;18.80;81.00;;;;;;5134169;27;20027;-84
2023/05/23 00:54:04;;;;;;;9.75;6.55;;;18.80;80.90;;;;;;5133953;27;20035;-84
2023/05/23 00:56:30;;;;;;;9.43;5.88;;;18.80;81.00;;;;;;5134149;27;20511;-84
2023/05/23 00:58:59;;;;;;;9.00;5.38;;;18.70;80.90;;;;;;5099849;27;20031;-84
2023/05/23 01:01:25;;;;;;;9.15;5.40;;;18.60;80.70;;;;;;5133911;27;20015;-84
2023/05/23 01:03:51;;;;;;;9.23;4.88;;;18.60;80.90;;;;;;5133746;27;20019;-84
2023/05/23 01:06:17;;;;;;;9.23;5.05;;;18.60;80.80;;;;;;5133748;27;20021;-84
2023/05/23 01:08:43;;;;;;;9.88;4.93;;;18.60;80.90;;;;;;5135002;27;20069;-84
2023/05/23 01:11:35;;;;;;;10.25;5.22;;;18.60;80.90;;;;;;5099445;27;20031;-84
2023/05/23 01:14:12;;;;;;;9.20;4.68;;;18.60;80.70;;;;;;5133500;27;20011;-84
2023/05/23 01:16:57;;;;;;;10.00;5.10;;;18.60;81.10;;;;;;5133456;27;20084;-84
2023/05/23 01:19:23;;;;;;;10.73;5.70;;;18.60;81.00;;;;;;5133475;27;20434;-84
2023/05/23 01:21:54;;;;;;;10.38;5.20;;;18.50;81.10;;;;;;5133619;27;20030;-84
2023/05/23 01:24:38;;;;;;;9.13;5.50;;;18.50;81.00;;;;;;5133491;27;20053;-84
2023/05/23 01:27:51;;;;;;;12.70;6.07;;;18.50;81.20;;;;;;5134712;27;20027;-84
2023/05/23 01:30:20;;;;;;;10.95;5.80;;;18.50;81.70;;;;;;5127520;27;20175;-84
2023/05/23 01:32:47;;;;;;;9.23;5.70;;;18.30;81.80;;;;;;5133280;27;20031;-84
2023/05/23 01:35:19;;;;;;;12.20;5.90;;;18.30;81.90;;;;;;5133011;27;20042;-84
2023/05/23 01:37:45;;;;;;;13.20;5.85;;;18.20;82.00;;;;;;5116901;27;20034;-84
2023/05/23 01:40:11;;;;;;;10.38;6.15;;;18.20;82.30;;;;;;5116124;27;20365;-84
2023/05/23 01:42:36;;;;;;;9.15;5.22;;;18.10;82.60;;;;;;5116101;27;20029;-84
2023/05/23 01:45:03;;;;;;;9.98;6.25;;;18.10;82.60;;;;;;5115844;27;20119;-84
2023/05/23 01:47:29;;;;;;;8.63;4.97;;;18.10;82.70;;;;;;5115793;27;20496;-84
2023/05/23 01:49:57;;;;;;;14.73;6.45;;;18.10;82.60;;;;;;5116213;27;20030;-84
2023/05/23 01:52:24;;;;;;;12.20;6.32;;;18.10;82.60;;;;;;5134294;27;20049;-84
2023/05/23 01:54:51;;;;;;;13.13;7.15;;;18.10;83.10;;;;;;5099044;27;20112;-84
2023/05/23 01:57:18;;;;;;;14.38;6.03;;;18.10;83.40;;;;;;5132904;27;20426;-84
2023/05/23 01:59:44;;;;;;;10.85;6.00;;;18.00;83.30;;;;;;5132752;27;20118;-84
2023/05/23 02:02:10;;;;;;;8.45;5.47;;;18.00;83.30;;;;;;5098778;27;20069;-84
2023/05/23 02:04:36;;;;;;;12.02;5.78;;;18.00;83.20;;;;;;5132698;27;20030;-84
2023/05/23 02:07:01;;;;;;;11.70;6.30;;;18.00;83.30;;;;;;5115628;27;20152;-84
2023/05/23 02:09:27;;;;;;;11.93;6.05;;;18.00;83.40;;;;;;5098562;27;20024;-84
2023/05/23 02:11:53;;;;;;;10.10;5.45;;;17.90;83.40;;;;;;5115572;27;20448;-84
2023/05/23 02:14:20;;;;;;;16.50;5.90;;;17.90;83.40;;;;;;5115204;27;20026;-84
2023/05/23 02:16:46;;;;;;;10.13;5.30;;;17.90;83.70;;;;;;5115356;27;20092;-84
2023/05/23 02:19:11;;;;;;;9.60;5.63;;;17.90;83.70;;;;;;5098413;28;20015;-84
2023/05/23 02:21:37;;;;;;;9.93;5.05;;;17.80;83.80;;;;;;5115337;27;20031;-84
2023/05/23 02:24:03;;;;;;;10.40;5.35;;;17.80;83.90;;;;;;5132442;27;20027;-84
2023/05/23 02:26:28;;;;;;;12.70;5.75;;;17.80;83.90;;;;;;5098290;27;20484;-84
2023/05/23 02:28:54;;;;;;;9.52;5.07;;;17.80;83.90;;;;;;5115370;27;20031;-84
2023/05/23 02:31:20;;;;;;;11.07;5.05;;;17.70;83.80;;;;;;5132448;27;20503;-84
2023/05/23 02:33:46;;;;;;;8.90;5.05;;;17.70;84.00;;;;;;5115240;28;20030;-84
2023/05/23 02:36:11;;;;;;;12.15;5.03;;;17.70;84.10;;;;;;5133588;27;20474;-84
2023/05/23 02:38:37;;;;;;;9.15;4.93;;;17.70;84.10;;;;;;5115146;28;20406;-84
2023/05/23 02:41:03;;;;;;;7.28;4.90;;;17.60;84.00;;;;;;5098262;28;20058;-84
2023/05/23 02:43:29;;;;;;;9.38;5.18;;;17.60;84.30;;;;;;5132300;28;20384;-84
2023/05/23 02:45:55;;;;;;;8.43;4.88;;;17.60;84.20;;;;;;5115068;28;20037;-83
2023/05/23 02:48:20;;;;;;;8.07;4.88;;;17.60;84.30;;;;;;5117195;27;20035;-84
2023/05/23 02:50:46;;;;;;;9.05;5.65;;;17.50;84.30;;;;;;5119358;27;20384;-84
2023/05/23 02:53:11;;;;;;;9.07;5.10;;;17.50;84.50;;;;;;5102188;27;20034;-84
2023/05/23 02:55:37;;;;;;;12.13;6.18;;;17.50;84.50;;;;;;5102243;27;20088;-83
2023/05/23 02:58:04;;;;;;;8.35;5.15;;;17.50;84.60;;;;;;5119180;27;20027;-83
2023/05/23 03:00:31;;;;;;;10.65;5.15;;;17.50;84.60;;;;;;5119509;27;20034;-83
2023/05/23 03:02:57;;;;;;;11.38;5.60;;;17.50;84.70;;;;;;5119112;27;20015;-84
2023/05/23 03:05:22;;;;;;;10.98;5.40;;;17.40;84.80;;;;;;5118947;27;20041;-83
2023/05/23 03:07:50;;;;;;;10.15;5.63;;;17.40;84.80;;;;;;5136070;27;20391;-84
2023/05/23 03:10:16;;;;;;;8.73;4.90;;;17.50;85.00;;;;;;5119209;27;20027;-84
2023/05/23 03:12:42;;;;;;;11.93;5.30;;;17.40;85.00;;;;;;5118998;27;20547;-84
2023/05/23 03:15:09;;;;;;;9.07;5.03;;;17.40;85.00;;;;;;5118407;27;20043;-83
2023/05/23 03:17:35;;;;;;;8.38;4.97;;;17.40;85.10;;;;;;5135980;27;20027;-83
2023/05/23 03:20:00;;;;;;;8.98;4.93;;;17.40;85.30;;;;;;5118788;27;20440;-83
2023/05/23 03:22:26;;;;;;;9.30;5.28;;;17.30;85.40;;;;;;5118612;27;20023;-84
2023/05/23 03:24:52;;;;;;;9.70;5.40;;;17.30;85.60;;;;;;5118780;27;20392;-83
2023/05/23 03:27:17;;;;;;;9.90;5.18;;;17.30;85.60;;;;;;5118617;27;20499;-83
2023/05/23 03:29:43;;;;;;;8.23;4.65;;;17.30;85.90;;;;;;5137169;27;20031;-83
2023/05/23 03:32:08;;;;;;;8.80;4.72;;;17.30;86.20;;;;;;5118492;27;20038;-83
2023/05/23 03:34:35;;;;;;;11.55;5.63;;;17.30;86.30;;;;;;5118537;27;20035;-84
2023/05/23 03:37:01;;;;;;;11.40;5.35;;;17.30;86.80;;;;;;5118569;27;20027;-83
2023/05/23 03:39:26;;;;;;;8.88;5.40;;;17.20;87.00;;;;;;5118414;27;20019;-83
2023/05/23 03:41:52;;;;;;;11.35;5.43;;;17.20;87.20;;;;;;5136786;27;20027;-83
2023/05/23 03:44:17;;;;;;;9.93;5.32;;;17.20;87.40;;;;;;5118305;27;20110;-83
2023/05/23 03:46:43;;;;;;;11.07;5.30;;;17.20;87.40;;;;;;5135383;27;20431;-83
2023/05/23 03:49:09;;;;;;;8.52;5.20;;;17.20;87.60;;;;;;5118272;27;20096;-84
2023/05/23 03:51:34;;;;;;;10.90;4.78;;;17.20;87.60;;;;;;5101318;27;20472;-83
2023/05/23 03:54:00;;;;;;;14.63;5.50;;;17.20;87.50;;;;;;5118164;27;20027;-83
2023/05/23 03:56:26;;;;;;;7.90;4.68;;;17.20;87.60;;;;;;5101061;27;20464;-83
2023/05/23 03:58:51;;;;;;;9.32;4.93;;;17.20;87.50;;;;;;5101007;27;20023;-83
2023/05/23 04:01:17;;;;;;;11.45;5.22;;;17.20;87.40;;;;;;5135191;27;20023;-83
2023/05/23 04:03:42;;;;;;;9.27;5.18;;;17.20;87.30;;;;;;5117909;27;20042;-83
2023/05/23 04:06:08;;;;;;;10.05;5.25;;;17.20;87.00;;;;;;5117831;27;20412;-83
2023/05/23 04:08:34;;;;;;;10.80;5.22;;;17.20;86.90;;;;;;5117862;27;20027;-83
2023/05/23 04:11:00;;;;;;;11.32;5.72;;;17.20;86.80;;;;;;5100779;27;20123;-83
2023/05/23 04:13:27;;;;;;;9.65;5.20;;;17.20;86.80;;;;;;5101018;27;20054;-83
2023/05/23 04:15:56;;;;;;;11.23;5.40;;;17.20;86.70;;;;;;5117311;27;20396;-83
2023/05/23 04:18:22;;;;;;;10.40;5.60;;;17.20;86.70;;;;;;5145836;27;20498;-84
2023/05/23 04:20:48;;;;;;;9.98;5.13;;;17.20;86.60;;;;;;5126925;27;20015;-83
2023/05/23 04:23:14;;;;;;;13.02;4.95;;;17.30;86.50;;;;;;5127161;27;20047;-84
2023/05/23 04:25:40;;;;;;;13.00;5.10;;;17.30;86.40;;;;;;5120258;27;20392;-84
2023/05/23 04:28:05;;;;;;;9.85;5.38;;;17.20;86.30;;;;;;5100374;27;20027;-84
2023/05/23 04:30:32;;;;;;;7.88;4.80;;;17.30;86.20;;;;;;5117462;27;20035;-84
2023/05/23 04:32:59;;;;;;;11.27;5.30;;;17.20;86.20;;;;;;5117559;27;20174;-83
2023/05/23 04:35:27;;;;;;;12.98;5.20;;;17.20;86.20;;;;;;5133432;27;20023;-83
2023/05/23 04:37:55;;;;;;;10.43;5.13;;;17.30;86.30;;;;;;5117504;27;20464;-83
2023/05/23 04:40:24;;;;;;;8.68;4.90;;;17.30;86.30;;;;;;5101028;27;20080;-83
2023/05/23 04:42:52;;;;;;;10.40;5.40;;;17.30;86.30;;;;;;5100572;27;20023;-84
2023/05/23 04:45:21;;;;;;;10.43;5.13;;;17.30;86.30;;;;;;5117585;27;20031;-83
2023/05/23 04:47:47;;;;;;;10.70;5.28;;;17.30;86.20;;;;;;5101062;27;20087;-83
2023/05/23 04:50:15;;;;;;;11.90;5.00;;;17.20;86.20;;;;;;5117158;27;20031;-84
2023/05/23 04:52:41;;;;;;;11.40;4.90;;;17.20;86.30;;;;;;5134027;27;20528;-83
2023/05/23 04:55:07;;;;;;;10.88;5.60;;;17.20;86.20;;;;;;5116944;27;20110;-83
2023/05/23 04:57:34;;;;;;;10.18;5.00;;;17.20;86.30;;;;;;5100090;27;20038;-83
2023/05/23 05:00:00;;;;;;;10.10;5.88;;;17.20;86.30;;;;;;5116901;27;20018;-83
2023/05/23 05:02:26;;;;;;;9.13;5.28;;;17.20;86.20;;;;;;5133911;27;20035;-83
2023/05/23 05:04:52;;;;;;;12.18;5.30;;;17.20;86.20;;;;;;5116864;27;20123;-83
2023/05/23 05:07:18;;;;;;;13.82;5.85;;;17.20;86.20;;;;;;5099791;27;20121;-83
2023/05/23 05:09:43;;;;;;;13.43;5.15;;;17.20;86.20;;;;;;5133638;27;20146;-83
2023/05/23 05:12:09;;;;;;;14.13;5.70;;;17.20;86.20;;;;;;5133436;27;20023;-83
2023/05/23 05:14:35;;;;;;;13.90;5.78;;;17.20;86.20;;;;;;5116254;27;20023;-83
2023/05/23 05:17:02;;;;;;;11.23;5.68;;;17.20;86.20;;;;;;5099763;27;20031;-83
2023/05/23 05:19:28;;;;;;;15.35;5.68;;;17.20;86.20;;;;;;5116827;27;20023;-83
2023/05/23 05:21:54;;;;;;;13.05;6.25;;;17.20;87.00;;;;;;5133672;27;20357;-83
2023/05/23 05:24:21;;;;;;;15.63;6.13;;;17.10;86.10;;;;;;5116003;27;20110;-83
2023/05/23 05:26:47;;;;;;;12.85;5.95;;;17.10;86.00;;;;;;5133505;27;20059;-83
2023/05/23 05:29:13;;;;;;;14.55;5.85;;;17.00;85.90;;;;;;5098521;27;20027;-83
2023/05/23 05:31:39;;;;;;;17.45;6.18;;;17.00;86.00;;;;;;5097448;27;20450;-84
2023/05/23 05:34:05;;;;;;;16.13;5.70;;;16.90;86.10;;;;;;5132747;27;20035;-83
2023/05/23 05:36:31;;;;;;;17.80;6.13;;;16.90;86.10;;;;;;5114671;27;20080;-83
2023/05/23 05:38:57;;;;;;;16.20;6.47;;;16.90;86.10;;;;;;5098944;27;20023;-83
2023/05/23 05:41:22;;;;;;;11.65;5.13;;;16.90;86.10;;;;;;5098919;27;20491;-83
2023/05/23 05:43:48;;;;;;;12.55;5.38;;;16.90;86.30;;;;;;5115703;27;20121;-83
2023/05/23 05:46:13;;;;;;;14.05;5.18;;;16.90;86.50;;;;;;5115828;27;20524;-83
2023/05/23 05:48:39;;;;;;;8.55;5.10;;;16.80;86.50;;;;;;5115917;27;20023;-83
2023/05/23 05:51:05;;;;;;;15.50;5.78;;;16.90;86.60;;;;;;5115929;27;20027;-83
2023/05/23 05:53:31;;;;;;;12.38;4.78;;;16.80;86.60;;;;;;5098841;27;20122;-83
2023/05/23 05:55:56;;;;;;;11.57;5.22;;;16.70;87.00;;;;;;5098697;27;20118;-83
2023/05/23 05:58:22;;;;;;;11.90;5.40;;;16.70;87.20;;;;;;5118143;27;20019;-83
2023/05/23 06:00:47;;;;;;;13.25;5.47;;;16.70;87.20;;;;;;5109480;27;20066;-83
2023/05/23 06:03:14;;;;;;;14.13;5.60;;;16.70;87.50;;;;;;5109334;27;20023;-83
2023/05/23 06:05:40;;;;;;;11.48;4.95;;;16.70;87.80;;;;;;5153389;27;20022;-83
2023/05/23 06:08:06;;;;;;;13.48;4.88;;;16.70;87.80;;;;;;5153411;27;20023;-83
2023/05/23 06:10:32;;;;;;;19.15;5.05;;;16.60;87.70;;;;;;5153430;27;20026;-83
2023/05/23 06:12:58;;;;;;;12.68;4.88;;;16.60;87.60;;;;;;5136082;27;20030;-83
2023/05/23 06:15:24;;;;;;;10.85;4.38;;;16.50;87.50;;;;;;5135583;27;20061;-83
2023/05/23 06:17:51;;;;;;;7.03;4.07;;;16.50;87.70;;;;;;5153226;27;20110;-83
2023/05/23 06:20:17;;;;;;;12.13;4.20;;;16.50;87.60;;;;;;5153346;27;20015;-83
2023/05/23 06:22:42;;;;;;;8.43;3.72;;;16.50;87.40;;;;;;5152381;27;20414;-83
2023/05/23 06:25:08;;;;;;;10.65;4.28;;;16.40;87.30;;;;;;5118724;27;20059;-83
2023/05/23 06:27:34;;;;;;;9.55;3.92;;;16.40;87.10;;;;;;5135796;27;20476;-83
2023/05/23 06:30:00;;;;;;;7.80;3.63;;;16.30;86.90;;;;;;5135764;27;20052;-83
2023/05/23 06:32:25;;;;;;;12.30;4.20;;;16.30;87.90;;;;;;5135462;27;20098;-83
2023/05/23 06:34:51;;;;;;;11.00;4.07;;;16.30;86.90;;;;;;5135707;27;20065;-83
2023/05/23 06:37:16;;;;;;;5.63;3.40;;;16.30;86.70;;;;;;5135663;27;20030;-83
2023/05/23 06:39:42;;;;;;;7.18;3.33;;;16.40;86.80;;;;;;5118550;27;20081;-83
2023/05/23 06:42:08;;;;;;;9.15;3.38;;;16.30;86.40;;;;;;5153101;27;20023;-83
2023/05/23 06:44:34;;;;;;;9.43;4.03;;;16.30;86.40;;;;;;5152839;27;20480;-83
2023/05/23 06:46:59;;;;;;;7.63;3.33;;;16.30;86.20;;;;;;5135673;27;20035;-83
2023/05/23 06:49:25;;;;;;;10.95;3.80;;;16.30;86.20;;;;;;5135617;27;20035;-83
2023/05/23 06:51:51;;;;;;;13.15;3.88;;;16.30;86.20;;;;;;5152867;27;20029;-83
2023/05/23 06:54:17;;;;;;;11.75;3.95;;;16.30;85.80;;;;;;5152767;27;20083;-83
2023/05/23 06:56:43;;;;;;;10.23;3.92;;;16.30;85.70;;;;;;5152956;27;20019;-83
2023/05/23 06:59:09;;;;;;;8.60;3.50;;;16.30;85.60;;;;;;5135543;27;20114;-83
2023/05/23 07:01:35;;;;;;;13.63;4.07;;;16.20;85.40;;;;;;5152847;27;20030;-83
2023/05/23 07:04:00;;;;;;;8.52;3.22;;;16.20;84.80;;;;;;5135714;27;20379;-83
2023/05/23 07:06:30;;;;;;;7.63;3.42;;;16.10;84.30;;;;;;5118375;27;20031;-83
2023/05/23 07:08:55;;;;;;;12.13;3.95;;;16.10;83.50;;;;;;5119469;27;20378;-83
2023/05/23 07:11:21;;;;;;;11.38;3.28;;;16.10;83.20;;;;;;5135466;27;20131;-83
2023/05/23 07:13:47;;;;;;;9.50;3.38;;;16.10;82.80;;;;;;5135483;27;20471;-83
2023/05/23 07:16:13;;;;;;;9.25;3.20;;;16.10;82.40;;;;;;5118009;27;20042;-83
2023/05/23 07:18:38;;;;;;;9.95;3.28;;;16.10;82.20;;;;;;5118321;27;20027;-83
2023/05/23 07:21:04;;;;;;;9.38;3.80;;;16.10;81.70;;;;;;5152697;27;20022;-83
2023/05/23 07:23:33;;;;;;;9.38;3.50;;;16.20;81.30;;;;;;5118389;27;20011;-83
2023/05/23 07:25:59;;;;;;;8.20;3.17;;;16.10;81.00;;;;;;5152480;27;20498;-83
2023/05/23 07:28:25;;;;;;;10.43;3.60;;;16.20;81.00;;;;;;5152527;27;20027;-83
2023/05/23 07:30:51;;;;;;;8.48;3.25;;;16.20;80.10;;;;;;5152582;27;20022;-83
2023/05/23 07:33:16;;;;;;;9.55;4.32;;;16.20;79.40;;;;;;5135629;27;20495;-83
2023/05/23 07:35:43;;;;;;;11.10;3.83;;;16.20;79.70;;;;;;5138959;27;20027;-83
2023/05/23 07:38:09;;;;;;;8.65;3.78;;;16.30;79.70;;;;;;5139027;27;20025;-83
2023/05/23 07:40:36;;;;;;;10.05;4.00;;;16.40;79.20;;;;;;5139047;27;20022;-83
2023/05/23 07:43:02;;;;;;;12.13;4.50;;;16.40;78.90;;;;;;5138922;27;20115;-83
2023/05/23 07:45:27;;;;;;;10.75;3.97;;;16.40;78.60;;;;;;5139138;27;20379;-83
2023/05/23 07:47:53;;;;;;;7.95;4.30;;;16.40;78.60;;;;;;5156192;27;20110;-83
2023/05/23 07:50:19;;;;;;;10.43;4.50;;;16.50;78.50;;;;;;5138844;27;20122;-83
2023/05/23 07:52:45;;;;;;;9.85;3.70;;;16.60;78.30;;;;;;5121761;27;20035;-83
2023/05/23 07:55:10;;;;;;;10.23;3.90;;;16.60;78.00;;;;;;5121834;27;20514;-83
2023/05/23 07:57:36;;;;;;;9.52;4.13;;;16.60;77.70;;;;;;5155974;27;20051;-83
2023/05/23 08:00:03;;;;;;;9.13;3.55;;;16.60;76.70;;;;;;5155754;27;20030;-83
2023/05/23 08:02:29;;;;;;;9.55;4.40;;;16.60;76.60;;;;;;5138990;27;20379;-83
2023/05/23 08:04:55;;;;;;;8.93;3.70;;;16.70;76.90;;;;;;5156104;27;20027;-83
2023/05/23 08:07:21;;;;;;;10.55;4.25;;;16.70;77.00;;;;;;5138553;27;20109;-83
2023/05/23 08:09:47;;;;;;;9.63;4.00;;;16.80;77.40;;;;;;5155625;27;20587;-83
2023/05/23 08:12:13;;;;;;;11.13;3.78;;;16.80;77.60;;;;;;5155697;27;20034;-83
2023/05/23 08:14:38;;;;;;;8.52;3.42;;;16.80;77.60;;;;;;5155434;27;20026;-83
2023/05/23 08:17:04;;;;;;;7.95;3.00;;;16.80;77.20;;;;;;5138491;27;20456;-83
2023/05/23 08:19:30;;;;;;;10.10;4.07;;;16.80;77.80;;;;;;5138470;27;20019;-83
2023/05/23 08:21:56;;;;;;;12.25;4.40;;;16.80;77.40;;;;;;5155428;27;20410;-83
2023/05/23 08:24:21;;;;;;;8.55;4.15;;;16.80;77.30;;;;;;5120994;27;20076;-83
2023/05/23 08:26:48;;;;;;;7.18;3.38;;;16.80;77.80;;;;;;5138185;27;20027;-83
2023/05/23 08:29:14;;;;;;;9.82;3.50;;;16.80;78.00;;;;;;5138011;27;20457;-83
2023/05/23 08:31:40;;;;;;;10.60;3.85;;;16.80;77.30;;;;;;5138080;27;20031;-83
2023/05/23 08:34:06;;;;;;;11.57;4.32;;;16.80;77.80;;;;;;5155194;27;20448;-83
2023/05/23 08:36:35;;;;;;;8.68;3.70;;;16.80;77.70;;;;;;5137995;27;20478;-83
2023/05/23 08:39:00;;;;;;;8.88;3.75;;;16.80;77.70;;;;;;5138223;27;20027;-83
2023/05/23 08:41:26;;;;;;;10.65;3.30;;;16.80;77.90;;;;;;5155030;27;20018;-84
2023/05/23 08:43:52;;;;;;;6.80;3.17;;;16.80;78.00;;;;;;5137864;27;20023;-83
2023/05/23 08:46:18;;;;;;;7.65;3.30;;;16.80;78.30;;;;;;5119632;27;20030;-83
2023/05/23 08:48:51;;;;;;;11.52;3.40;;;16.80;78.60;;;;;;5137641;27;20037;-83
2023/05/23 08:51:16;;;;;;;7.93;2.78;;;16.80;78.40;;;;;;5154773;27;20061;-83
2023/05/23 08:53:47;;;;;;;5.72;2.92;;;16.80;78.20;;;;;;5154814;27;20050;-83
2023/05/23 08:56:15;;;;;;;8.00;3.08;;;16.80;78.00;;;;;;5154651;27;20033;-83
2023/05/23 08:58:41;;;;;;;5.43;2.50;;;16.80;78.20;;;;;;5154929;27;20050;-83
2023/05/23 09:01:09;;;;;;;7.63;3.35;;;16.80;78.40;;;;;;5137529;27;20026;-83
2023/05/23 09:03:36;;;;;;;5.38;1.98;;;16.80;78.40;;;;;;5137704;27;20067;-83
2023/05/23 09:06:06;;;;;;;3.92;2.10;;;16.80;78.00;;;;;;5137615;27;20031;-84
2023/05/23 09:08:31;;;;;;;5.22;2.30;;;16.90;77.60;;;;;;5120717;27;20532;-83
2023/05/23 09:10:57;;;;;;;5.85;1.92;;;17.00;77.40;;;;;;5137312;27;20027;-83
2023/05/23 09:13:24;;;;;;;9.45;2.45;;;17.10;77.40;;;;;;5120119;27;20023;-83
2023/05/23 09:16:03;;;;;;;7.10;1.98;;;17.10;76.80;;;;;;5137095;27;20134;-83
2023/05/23 09:18:38;;;;;;;6.80;2.08;;;17.30;75.60;;;;;;5137059;27;20087;-83
2023/05/23 09:21:04;;;;;;;5.55;1.92;;;17.20;74.90;;;;;;5155706;27;20480;-83
2023/05/23 09:23:38;;;;;;;6.05;1.98;;;17.20;75.00;;;;;;5154364;27;20494;-83
2023/05/23 09:26:06;;;;;;;7.97;2.05;;;17.20;74.80;;;;;;5137709;27;20027;-83
2023/05/23 09:28:32;;;;;;;6.53;2.13;;;17.30;74.00;;;;;;5119851;27;20030;-83
2023/05/23 09:31:09;;;;;;;7.35;2.40;;;17.50;73.70;;;;;;5154247;27;20015;-83
2023/05/23 09:33:49;;;;;;;7.57;2.00;;;17.60;74.20;;;;;;5154063;27;20405;-83
2023/05/23 09:36:16;;;;;;;6.72;2.00;;;17.70;73.00;;;;;;5136956;27;20026;-84
2023/05/23 10:38:51;;;;;;;9.77;2.10;;;17.90;68.80;;;;;;5106000;28;20113;-83
2023/05/23 10:41:47;;;;;;;6.82;2.30;;;18.00;68.90;;;;;;5123276;27;20365;-84
2023/05/23 10:44:30;;;;;;;6.82;2.30;;;18.20;68.10;;;;;;5109260;28;20019;-84
2023/05/23 10:47:00;;;;;;;7.80;2.10;;;18.20;66.70;;;;;;5114562;28;20031;-84
2023/05/23 10:49:46;;;;;;;11.02;2.42;;;18.30;67.50;;;;;;5096533;28;20083;-84
2023/05/23 10:52:18;;;;;;;6.60;2.53;;;18.50;66.20;;;;;;5130140;27;20046;-84
2023/05/23 10:54:49;;;;;;;8.68;2.60;;;18.40;64.60;;;;;;5113641;28;20031;-83
2023/05/23 10:57:17;;;;;;;6.47;2.55;;;18.30;65.70;;;;;;5133335;27;20015;-84
2023/05/23 10:59:44;;;;;;;8.00;2.72;;;18.40;66.20;;;;;;5132105;27;20051;-84
2023/05/23 11:02:15;;;;;;;7.93;2.15;;;18.50;66.10;;;;;;5111950;28;20380;-84
2023/05/23 11:04:41;;;;;;;10.13;2.85;;;18.60;65.90;;;;;;5112972;28;20092;-84
2023/05/23 11:07:28;;;;;;;6.90;2.67;;;18.70;65.50;;;;;;5115005;28;20027;-84
2023/05/23 11:10:23;;;;;;;8.80;2.90;;;18.90;65.90;;;;;;5135132;27;20051;-83
2023/05/23 11:12:49;;;;;;;7.95;2.53;;;19.00;66.30;;;;;;5122972;27;20043;-84
2023/05/23 11:15:20;;;;;;;9.48;3.63;;;19.00;65.80;;;;;;5118704;27;20034;-84
2023/05/23 11:17:57;;;;;;;9.63;2.77;;;19.00;64.70;;;;;;5136076;27;20492;-84
2023/05/23 11:20:27;;;;;;;10.88;2.42;;;19.00;64.40;;;;;;5118945;27;20027;-84
2023/05/23 11:23:01;;;;;;;8.75;2.47;;;18.90;64.00;;;;;;5135951;27;20039;-84
2023/05/23 11:25:44;;;;;;;8.02;2.50;;;18.90;63.60;;;;;;5118464;27;20023;-84
2023/05/23 11:28:12;;;;;;;6.22;2.63;;;19.00;64.40;;;;;;5135228;27;20026;-82
2023/05/23 11:30:41;;;;;;;6.25;2.30;;;19.00;64.50;;;;;;5137181;27;20072;-85
2023/05/23 11:33:12;;;;;;;6.88;1.83;;;19.10;63.70;;;;;;5136197;27;20066;-85
2023/05/23 11:35:41;;;;;;;7.95;2.78;;;19.00;62.10;;;;;;5134544;27;20026;-83
2023/05/23 11:38:07;;;;;;;5.50;2.30;;;19.10;62.00;;;;;;5135963;27;20023;-84
2023/05/23 11:40:35;;;;;;;13.27;3.13;;;19.20;62.90;;;;;;5118206;27;20513;-84
2023/05/23 11:43:06;;;;;;;10.10;3.70;;;19.40;63.40;;;;;;5135721;27;20088;-84
2023/05/23 11:45:33;;;;;;;9.00;2.67;;;19.40;62.20;;;;;;5118543;27;20027;-85
2023/05/23 11:48:07;;;;;;;9.38;2.83;;;19.50;63.30;;;;;;5118363;27;20031;-84
2023/05/23 11:50:33;;;;;;;5.90;2.08;;;19.50;62.50;;;;;;5136614;27;20027;-84
2023/05/23 11:52:59;;;;;;;5.97;2.35;;;19.50;62.00;;;;;;5136542;27;20441;-84
2023/05/23 11:55:25;;;;;;;8.00;2.30;;;19.50;62.00;;;;;;5135267;27;20027;-84
2023/05/23 11:57:51;;;;;;;9.45;2.30;;;19.50;61.40;;;;;;5101197;27;20110;-84
2023/05/23 12:00:18;;;;;;;6.38;2.28;;;19.50;61.80;;;;;;5135143;27;20019;-84
2023/05/23 12:02:44;;;;;;;7.18;2.30;;;19.50;60.60;;;;;;5118231;27;20055;-84
2023/05/23 12:05:14;;;;;;;5.80;2.33;;;19.60;60.00;;;;;;5136374;27;20531;-84
2023/05/23 12:07:41;;;;;;;5.88;2.00;;;19.70;60.80;;;;;;5118126;27;20530;-84
2023/05/23 12:10:09;;;;;;;7.13;2.47;;;19.80;60.20;;;;;;5116742;27;20027;-84
2023/05/23 12:12:35;;;;;;;7.45;2.63;;;19.80;61.10;;;;;;5116708;27;20457;-84
2023/05/23 12:15:02;;;;;;;8.20;2.58;;;19.80;60.50;;;;;;5117675;27;20019;-84
2023/05/23 12:17:27;;;;;;;7.25;2.50;;;19.80;60.50;;;;;;5099581;27;20053;-84
2023/05/23 12:19:53;;;;;;;6.57;2.20;;;19.80;59.50;;;;;;5132615;27;20455;-84
2023/05/23 12:22:23;;;;;;;10.27;2.50;;;19.80;59.70;;;;;;5117501;27;20038;-84
2023/05/23 12:24:54;;;;;;;8.75;2.30;;;19.90;59.90;;;;;;5117669;27;20034;-85
2023/05/23 12:27:30;;;;;;;6.40;2.38;;;19.90;60.10;;;;;;5117728;27;20114;-84
2023/05/23 12:30:10;;;;;;;6.90;2.20;;;19.90;60.70;;;;;;5135863;27;20030;-84
2023/05/23 12:32:40;;;;;;;9.73;2.10;;;20.00;60.30;;;;;;5134696;27;20077;-84
2023/05/23 12:35:11;;;;;;;7.63;2.65;;;19.90;60.00;;;;;;5117251;27;20019;-84
2023/05/23 12:37:44;;;;;;;8.57;2.28;;;19.90;60.80;;;;;;5136043;27;20019;-84
2023/05/23 12:40:15;;;;;;;9.13;2.42;;;19.90;60.70;;;;;;5117186;27;20046;-84
2023/05/23 12:42:54;;;;;;;5.93;2.25;;;19.90;60.30;;;;;;5134284;27;20350;-84
2023/05/23 12:45:22;;;;;;;7.53;2.50;;;20.00;60.30;;;;;;5134206;27;20027;-84
2023/05/23 12:47:48;;;;;;;8.82;2.10;;;20.20;59.50;;;;;;5134093;27;20064;-84
2023/05/23 12:50:13;;;;;;;6.28;2.35;;;20.20;59.10;;;;;;5117160;27;20023;-84
2023/05/23 12:52:39;;;;;;;7.88;2.00;;;20.20;57.50;;;;;;5117033;27;20106;-84
2023/05/23 12:55:07;;;;;;;9.73;2.30;;;20.20;57.00;;;;;;5117051;27;20027;-84
2023/05/23 12:57:33;;;;;;;7.80;2.50;;;20.20;57.60;;;;;;5117283;27;20023;-84
2023/05/23 12:59:59;;;;;;;6.57;2.00;;;20.00;57.00;;;;;;5134055;27;20408;-84
2023/05/23 13:02:26;;;;;;;8.23;2.70;;;19.90;58.10;;;;;;5116813;27;20067;-84
2023/05/23 13:04:52;;;;;;;6.30;2.17;;;19.90;58.10;;;;;;5133997;27;20472;-84
2023/05/23 13:07:18;;;;;;;8.20;2.70;;;19.90;59.10;;;;;;5133981;27;20034;-84
2023/05/23 13:09:43;;;;;;;7.03;2.20;;;20.10;60.20;;;;;;5099745;27;20031;-84
2023/05/23 13:12:11;;;;;;;5.68;1.90;;;20.10;58.90;;;;;;5133895;27;20172;-84
2023/05/23 13:14:37;;;;;;;7.43;1.90;;;20.30;59.50;;;;;;5099786;27;20035;-84
2023/05/23 13:17:02;;;;;;;6.38;2.17;;;20.30;58.10;;;;;;5116502;27;20031;-84
2023/05/23 13:19:28;;;;;;;6.47;1.98;;;20.40;58.00;;;;;;5099597;27;20024;-84
2023/05/23 13:21:54;;;;;;;6.15;1.90;;;20.30;55.00;;;;;;5116570;27;20041;-84
2023/05/23 13:24:20;;;;;;;9.93;2.25;;;20.30;55.90;;;;;;5133648;27;20023;-84
2023/05/23 13:26:46;;;;;;;7.82;2.45;;;20.30;56.10;;;;;;5116478;27;20380;-84
2023/05/23 13:29:12;;;;;;;6.38;2.08;;;20.30;55.70;;;;;;5116458;27;20016;-84
2023/05/23 13:31:37;;;;;;;7.32;2.25;;;20.50;55.80;;;;;;5098792;27;20023;-84
2023/05/23 13:34:03;;;;;;;7.95;2.95;;;20.50;55.10;;;;;;5133530;27;20028;-84
2023/05/23 13:36:29;;;;;;;7.55;2.20;;;20.50;55.20;;;;;;5099139;27;20028;-84
2023/05/23 13:38:55;;;;;;;4.30;1.58;;;20.40;54.60;;;;;;5099255;27;20434;-84
2023/05/23 13:41:20;;;;;;;8.23;2.17;;;20.30;55.20;;;;;;5116244;27;20497;-84
2023/05/23 13:43:46;;;;;;;8.05;2.38;;;20.10;55.20;;;;;;5133052;27;20038;-84